Stations météo

Publicité
Apt, France (7657): Température de l'air & dewpoint: 10.07.2019 00:00:00 - 16.07.2019 00:00:00 (CEST)Apt, France (7657): Vitesse du vent & gusts: 10.07.2019 00:00:00 - 16.07.2019 00:00:00 (CEST)Apt, France (7657): Direction du vent: 10.07.2019 00:00:00 - 16.07.2019 00:00:00 (CEST)Apt, France (7657): Quantités de précipitations: 10.07.2019 00:00:00 - 16.07.2019 00:00:00 (CEST)
Date & Time tt [°C] td [°C] ff [km/h] ff [knt] fx [km/h] fx [knt] dd rr [mm]
16.07.2019 00:00:00 - - - - - - - -
15.07.2019 23:00:00 14,7 9,3 8 4 22 12 W 0,0
15.07.2019 22:00:00 18,6 9,9 18 10 35 19 N 0,0
15.07.2019 21:00:00 20,2 9,7 18 10 34 18 NNW 0,0
15.07.2019 20:00:00 22,7 9,1 18 10 39 21 NNW -
15.07.2019 19:00:00 23,0 8,7 21 11 37 20 NNW 0,0
15.07.2019 18:00:00 23,5 8,0 16 9 35 19 NE 0,0
15.07.2019 17:00:00 23,7 8,5 21 11 48 26 NNW 0,0
15.07.2019 16:00:00 23,4 9,0 28 15 46 25 NNW 0,0
15.07.2019 15:00:00 23,3 8,9 26 14 48 26 NNW 0,0
15.07.2019 14:00:00 24,3 7,0 22 12 44 24 N -
15.07.2019 13:00:00 22,7 6,9 18 10 48 26 N 0,0
15.07.2019 12:00:00 21,3 7,9 16 9 41 22 NNW 0,0
15.07.2019 11:00:00 20,4 8,1 21 11 44 24 N 0,0
15.07.2019 10:00:00 18,3 8,0 26 14 50 27 NNW 0,0
15.07.2019 09:00:00 16,8 8,0 22 12 46 25 NNW 0,0
15.07.2019 08:00:00 15,2 8,4 22 12 39 21 NNW -
15.07.2019 07:00:00 14,3 8,3 16 9 46 25 WNW 0,0
15.07.2019 06:00:00 14,0 8,6 24 13 42 23 NNW 0,0
15.07.2019 05:00:00 14,1 8,7 11 6 29 16 NNW 0,0
15.07.2019 04:00:00 14,2 8,6 8 4 28 15 WNW 0,0
15.07.2019 03:00:00 15,5 8,7 11 6 26 14 NW 0,0
15.07.2019 02:00:00 14,8 8,7 9 5 18 10 W -
15.07.2019 01:00:00 15,6 9,0 8 4 18 10 NW 0,0
15.07.2019 00:00:00 15,8 9,2 9 5 22 12 NNW 0,0
14.07.2019 23:00:00 17,9 9,3 11 6 22 12 NW 0,0
14.07.2019 22:00:00 19,5 9,7 11 6 28 15 NW 0,0
14.07.2019 21:00:00 21,5 10,0 15 8 28 15 NNW 0,0
14.07.2019 20:00:00 24,3 10,2 15 8 35 19 NW -
14.07.2019 19:00:00 25,5 10,9 22 12 39 21 W 0,0
14.07.2019 18:00:00 26,9 11,0 18 10 34 18 W 0,0
14.07.2019 17:00:00 27,7 11,3 11 6 34 18 W 0,0
14.07.2019 16:00:00 27,2 11,6 11 6 26 14 NNW 0,0
14.07.2019 15:00:00 27,8 9,6 8 4 26 14 SSE 0,0
14.07.2019 14:00:00 27,4 11,4 13 7 29 16 ESE -
14.07.2019 13:00:00 26,2 10,4 15 8 34 18 SE 0,0
14.07.2019 12:00:00 25,6 9,8 13 7 31 17 SSE 0,0
14.07.2019 11:00:00 24,4 10,3 15 8 31 17 SE 0,0
14.07.2019 10:00:00 24,3 9,1 13 7 29 16 SE 0,0
14.07.2019 09:00:00 22,7 10,2 2 1 9 5 NE 0,0
14.07.2019 08:00:00 18,4 11,0 0 0 4 2 N -
14.07.2019 07:00:00 10,8 7,5 2 1 8 4 NNE 0,0
14.07.2019 06:00:00 9,5 6,2 2 1 8 4 WNW 0,0
14.07.2019 05:00:00 9,5 6,4 0 0 15 8 N 0,0
14.07.2019 04:00:00 11,5 7,4 8 4 15 8 WNW 0,0
14.07.2019 03:00:00 13,8 7,6 11 6 22 12 WNW 0,0
14.07.2019 02:00:00 14,7 7,7 15 8 22 12 WNW -
14.07.2019 01:00:00 16,5 7,9 15 8 34 18 NW 0,0
14.07.2019 00:00:00 17,4 8,3 15 8 34 18 NW 0,0
13.07.2019 23:00:00 18,9 8,5 13 7 44 24 NW 0,0
13.07.2019 22:00:00 19,9 8,6 13 7 28 15 WNW 0,0
13.07.2019 21:00:00 20,9 8,2 8 4 48 26 W 0,0
13.07.2019 20:00:00 23,3 8,2 28 15 52 28 NW -
13.07.2019 19:00:00 24,8 7,9 34 18 50 27 NNW 0,0
13.07.2019 18:00:00 25,6 8,1 29 16 48 26 NW 0,0
13.07.2019 17:00:00 26,1 8,1 26 14 42 23 NW 0,0
13.07.2019 16:00:00 26,9 7,9 24 13 42 23 NW 0,0
13.07.2019 15:00:00 27,1 8,0 22 12 46 25 NNW 0,0
13.07.2019 14:00:00 26,4 8,4 24 13 44 24 NNW -
13.07.2019 13:00:00 25,9 8,8 22 12 44 24 NNW 0,0
13.07.2019 12:00:00 24,8 9,5 22 12 42 23 NNW 0,0
13.07.2019 11:00:00 23,9 9,5 22 12 46 25 NNW 0,0
13.07.2019 10:00:00 22,1 9,9 26 14 48 26 NW 0,0
13.07.2019 09:00:00 21,1 10,3 22 12 39 21 NW 0,0
13.07.2019 08:00:00 19,6 10,6 16 9 29 16 WNW -
13.07.2019 07:00:00 18,5 10,1 15 8 35 19 WNW 0,0
13.07.2019 06:00:00 18,1 9,4 18 10 34 18 NW 0,0
13.07.2019 05:00:00 18,6 9,4 18 10 41 22 NW 0,0
13.07.2019 04:00:00 19,4 9,8 21 11 37 20 NW 0,0
13.07.2019 03:00:00 20,1 9,9 24 13 41 22 NW 0,0
13.07.2019 02:00:00 20,7 9,9 24 13 48 26 NNW -
13.07.2019 01:00:00 21,2 10,1 24 13 44 24 NW 0,0
13.07.2019 00:00:00 21,5 10,3 16 9 31 17 WNW 0,0
12.07.2019 23:00:00 21,6 10,4 18 10 34 18 NNW 0,0
12.07.2019 22:00:00 22,8 10,9 22 12 37 20 NNW 0,0
12.07.2019 21:00:00 24,1 10,7 21 11 39 21 NW 0,0
12.07.2019 20:00:00 26,2 10,8 21 11 52 28 NW -
12.07.2019 19:00:00 27,3 10,5 29 16 55 30 NNW 0,0
12.07.2019 18:00:00 27,3 10,5 34 18 59 32 NW 0,0
12.07.2019 17:00:00 28,4 11,0 28 15 46 25 NNW 0,0
12.07.2019 16:00:00 28,6 9,8 24 13 48 26 NW 0,0
12.07.2019 15:00:00 28,8 9,5 22 12 42 23 NNW 0,0
12.07.2019 14:00:00 28,2 9,0 18 10 37 20 NNW -
12.07.2019 13:00:00 27,3 8,7 16 9 46 25 N 0,0
12.07.2019 12:00:00 26,3 8,7 16 9 41 22 NNW 0,0
12.07.2019 11:00:00 25,3 8,3 22 12 37 20 NNW 0,0
12.07.2019 10:00:00 23,8 8,6 18 10 35 19 NNW 0,0
12.07.2019 09:00:00 22,6 8,3 18 10 31 17 NNW 0,0
12.07.2019 08:00:00 21,2 8,5 16 9 35 19 NNW -
12.07.2019 07:00:00 19,2 8,2 8 4 22 12 W 0,0
12.07.2019 06:00:00 17,0 7,6 9 5 22 12 WNW 0,0
12.07.2019 05:00:00 15,7 7,5 9 5 16 9 W 0,0
12.07.2019 04:00:00 15,7 7,5 13 7 18 10 WNW 0,0
12.07.2019 03:00:00 16,6 8,0 11 6 15 8 W 0,0
12.07.2019 02:00:00 18,8 7,2 11 6 21 11 WNW -
12.07.2019 01:00:00 18,3 7,4 11 6 15 8 W 0,0
12.07.2019 00:00:00 18,2 7,6 8 4 15 8 WNW 0,0
11.07.2019 23:00:00 20,5 6,8 8 4 15 8 W 0,0
11.07.2019 22:00:00 21,9 6,5 11 6 34 18 NNW 0,0
11.07.2019 21:00:00 23,2 6,5 21 11 41 22 NNW 0,0
11.07.2019 20:00:00 24,2 10,1 13 7 31 17 NNW -
11.07.2019 19:00:00 25,3 8,3 15 8 37 20 WNW 0,0
11.07.2019 18:00:00 25,3 12,2 18 10 31 17 W 0,0
11.07.2019 17:00:00 26,8 13,2 16 9 29 16 WNW 0,0
11.07.2019 16:00:00 27,2 14,2 16 9 34 18 WNW 0,0
11.07.2019 15:00:00 27,0 14,1 15 8 29 16 SW 0,0
11.07.2019 14:00:00 26,7 15,1 9 5 26 14 WNW -
11.07.2019 13:00:00 26,7 13,8 8 4 26 14 SSW 0,0
11.07.2019 12:00:00 24,9 13,4 11 6 26 14 SE 0,0
11.07.2019 11:00:00 25,3 14,7 9 5 24 13 ESE 0,0
11.07.2019 10:00:00 23,7 13,3 11 6 22 12 SE 0,0
11.07.2019 09:00:00 22,4 14,8 8 4 13 7 ESE 0,0
11.07.2019 08:00:00 18,4 14,3 0 0 4 2 N -
11.07.2019 07:00:00 12,1 11,9 0 0 5 3 N 0,0
11.07.2019 06:00:00 10,5 10,2 0 0 5 3 N 0,0
11.07.2019 05:00:00 10,7 10,1 2 1 5 3 W 0,0
11.07.2019 04:00:00 11,8 11,3 4 2 8 4 WSW 0,0
11.07.2019 03:00:00 11,9 11,3 2 1 8 4 ESE 0,0
11.07.2019 02:00:00 12,3 11,0 0 0 4 2 N -
11.07.2019 01:00:00 13,2 11,4 4 2 8 4 SSW 0,0
11.07.2019 00:00:00 14,7 10,9 2 1 13 7 W 0,0
10.07.2019 23:00:00 17,1 11,4 8 4 16 9 W 0,0
10.07.2019 22:00:00 20,0 11,2 8 4 21 11 WNW 0,0
10.07.2019 21:00:00 22,6 11,6 15 8 26 14 NW 0,0
10.07.2019 20:00:00 25,8 11,9 18 10 29 16 NNW -
10.07.2019 19:00:00 27,5 11,9 13 7 34 18 NW 0,0
10.07.2019 18:00:00 27,3 12,1 22 12 34 18 WSW 0,0
10.07.2019 17:00:00 29,1 12,1 13 7 29 16 WNW 0,0
10.07.2019 16:00:00 28,5 12,8 13 7 28 15 WNW 0,0
10.07.2019 15:00:00 28,7 12,6 9 5 29 16 NNW 0,0
10.07.2019 14:00:00 28,1 13,2 11 6 29 16 NNW -
10.07.2019 13:00:00 26,6 13,7 16 9 31 17 NW 0,0
10.07.2019 12:00:00 25,4 13,3 21 11 35 19 NNW 0,0
10.07.2019 11:00:00 23,2 12,8 21 11 35 19 NNW 0,0
10.07.2019 10:00:00 21,7 12,8 18 10 34 18 NNW 0,0
10.07.2019 09:00:00 19,9 12,9 13 7 28 15 NW 0,0
10.07.2019 08:00:00 18,2 12,4 15 8 29 16 NW -
10.07.2019 07:00:00 16,4 12,2 16 9 29 16 NW 0,0
10.07.2019 06:00:00 15,4 12,3 18 10 34 18 NNW 0,0
10.07.2019 05:00:00 15,6 12,7 15 8 26 14 WNW 0,0
10.07.2019 04:00:00 15,6 13,4 18 10 28 15 NW 0,0
10.07.2019 03:00:00 15,2 14,1 11 6 22 12 W 0,0
10.07.2019 02:00:00 15,4 14,3 13 7 18 10 WNW -
10.07.2019 01:00:00 15,6 14,5 11 6 16 9 WNW 0,0
10.07.2019 00:00:00 14,6 14,1 5 3 9 5 W 0,2

tt = Température de l'air
td = dewpoint
ff = Vitesse du vent
fx = gusts
dd = Direction du vent
rr = Quantités de précipitations

stations d'obs. à proximité